Time;durP1;ratioP1;P1;durP2;ratioP2;P2;SDS_P1;SDS_P2;PMS_P1;PMS_P2;Temp;Humidity;BMP_temperature;BMP_pressure;BME280_temperature;BME280_humidity;BME280_pressure;Samples;Min_cycle;Max_cycle;Signal;HPM_P1;HPM_P2
2023/03/01 00:01:33;;;;;;;40.10;21.60;;;;;;;5.51;66.97;101584.81;4980669;28;20077;-80
2023/03/01 00:04:09;;;;;;;35.15;20.88;;;;;;;5.62;67.03;101605.31;5004217;28;20060;-77
2023/03/01 00:06:47;;;;;;;31.92;20.95;;;;;;;5.71;67.06;101612.75;4988234;28;20480;-78
2023/03/01 00:09:18;;;;;;;35.05;21.23;;;;;;;5.70;67.81;101613.66;4984888;28;20492;-78
2023/03/01 00:11:48;;;;;;;34.85;21.10;;;;;;;4.95;67.26;101485.06;4998814;28;20205;-78
2023/03/01 00:14:17;;;;;;;32.30;21.73;;;;;;;5.41;67.28;101566.91;4979716;28;20119;-78
2023/03/01 00:16:46;;;;;;;33.28;19.25;;;;;;;5.43;67.13;101573.81;4985225;28;20050;-77
2023/03/01 00:19:17;;;;;;;31.98;19.77;;;;;;;5.44;67.70;101601.03;4990185;28;20089;-76
2023/03/01 00:21:48;;;;;;;32.35;20.42;;;;;;;5.46;66.72;101601.75;4964866;28;20119;-78
2023/03/01 00:24:15;;;;;;;36.88;20.88;;;;;;;5.40;66.91;101602.09;4968206;28;20080;-77
2023/03/01 00:26:41;;;;;;;38.45;20.85;;;;;;;5.54;67.10;101618.88;4963757;28;20057;-75
2023/03/01 00:29:16;;;;;;;34.65;19.98;;;;;;;5.46;67.20;101610.53;4968188;28;20502;-79
2023/03/01 00:31:49;;;;;;;32.38;20.40;;;;;;;5.53;66.55;101621.59;4968679;28;20053;-79
2023/03/01 00:34:16;;;;;;;31.77;20.73;;;;;;;5.35;66.46;101576.84;4965112;28;20527;-77
2023/03/01 00:36:42;;;;;;;38.45;21.17;;;;;;;5.27;66.90;101568.50;4975358;28;20458;-77
2023/03/01 00:39:14;;;;;;;38.40;19.38;;;;;;;5.55;66.83;101620.59;4986728;28;20452;-78
2023/03/01 00:41:42;;;;;;;34.13;21.33;;;;;;;5.20;66.09;101553.09;4984537;28;20407;-78
2023/03/01 00:44:09;;;;;;;34.78;20.95;;;;;;;5.57;66.38;101625.78;5003352;28;20068;-78
2023/03/01 00:46:39;;;;;;;34.40;19.60;;;;;;;5.59;66.33;101615.19;4986074;28;20132;-76
2023/03/01 00:49:06;;;;;;;35.90;20.60;;;;;;;5.49;65.48;101588.47;5003597;28;20045;-76
2023/03/01 00:51:35;;;;;;;36.10;21.27;;;;;;;5.43;66.18;101583.50;4984845;28;20080;-77
2023/03/01 00:54:32;;;;;;;27.67;18.38;;;;;;;5.48;66.04;101576.22;4979249;28;20046;-78
2023/03/01 00:57:07;;;;;;;32.25;19.42;;;;;;;5.50;65.85;101588.34;4978945;28;20057;-79
2023/03/01 00:59:34;;;;;;;31.67;20.25;;;;;;;5.61;65.68;101597.47;4985488;28;20173;-77
2023/03/01 01:02:04;;;;;;;31.75;19.88;;;;;;;5.61;65.35;101586.94;4986552;28;20304;-77
2023/03/01 01:04:30;;;;;;;31.50;20.17;;;;;;;5.29;65.33;101548.22;4984329;28;20567;-77
2023/03/01 01:07:06;;;;;;;31.77;19.95;;;;;;;5.39;65.96;101563.50;4984367;28;20147;-78
2023/03/01 01:09:33;;;;;;;30.67;20.33;;;;;;;5.46;65.81;101572.78;5002523;28;20053;-80
2023/03/01 01:12:03;;;;;;;33.55;20.23;;;;;;;5.25;65.20;101528.22;4986881;28;20214;-79
2023/03/01 01:14:30;;;;;;;28.45;19.67;;;;;;;5.37;65.88;101557.50;4985649;28;20049;-78
2023/03/01 01:17:05;;;;;;;31.02;18.73;;;;;;;5.29;65.26;101529.78;5003767;28;20317;-78
2023/03/01 01:19:43;;;;;;;29.38;19.55;;;;;;;5.12;65.53;101495.56;4980937;28;20338;-78
2023/03/01 01:22:18;;;;;;;30.02;18.70;;;;;;;5.44;65.31;101558.88;5004362;28;20107;-79
2023/03/01 01:24:51;;;;;;;30.02;18.92;;;;;;;5.16;65.53;101512.91;4985009;28;20551;-76
2023/03/01 01:27:27;;;;;;;32.17;19.58;;;;;;;5.45;65.86;101550.03;4981488;28;20298;-76
2023/03/01 01:29:53;;;;;;;30.23;18.83;;;;;;;4.96;66.21;101463.09;4977451;28;20458;-76
2023/03/01 01:32:20;;;;;;;40.53;19.98;;;;;;;5.34;65.93;101522.50;4979507;28;20523;-77
2023/03/01 01:35:07;;;;;;;29.80;20.23;;;;;;;5.46;65.64;101547.34;4974562;28;20369;-78
2023/03/01 01:37:44;;;;;;;30.80;19.00;;;;;;;5.35;65.71;101526.81;4978143;28;20222;-77
2023/03/01 01:40:33;;;;;;;29.45;18.85;;;;;;;5.36;66.39;101525.03;4980601;28;20630;-78
2023/03/01 01:43:04;;;;;;;30.65;18.85;;;;;;;5.46;65.81;101531.53;4998764;28;20765;-78
2023/03/01 01:45:37;;;;;;;33.10;19.98;;;;;;;5.37;66.00;101515.38;5001964;28;20401;-76
2023/03/01 01:48:18;;;;;;;35.25;19.55;;;;;;;5.48;65.68;101528.81;4977263;28;20596;-77
2023/03/01 01:51:00;;;;;;;29.17;19.80;;;;;;;5.31;65.82;101492.81;4979992;28;20838;-77
2023/03/01 01:53:32;;;;;;;31.55;19.48;;;;;;;5.43;65.96;101521.13;4976349;28;20072;-77
2023/03/01 01:56:01;;;;;;;39.13;22.17;;;;;;;5.31;66.23;101491.03;4983709;28;20091;-77
2023/03/01 01:58:33;;;;;;;30.80;19.40;;;;;;;5.49;65.46;101514.72;4977240;28;20049;-78
2023/03/01 02:01:10;;;;;;;31.52;19.55;;;;;;;5.47;65.74;101506.88;5005811;28;20140;-78
2023/03/01 02:03:42;;;;;;;29.45;19.38;;;;;;;5.45;65.82;101503.47;4944223;28;20127;-79
2023/03/01 02:06:34;;;;;;;32.08;19.15;;;;;;;5.24;66.04;101471.25;4957926;28;20052;-77
2023/03/01 02:09:06;;;;;;;30.25;18.40;;;;;;;5.42;65.87;101502.81;4961118;28;20414;-79
2023/03/01 02:11:42;;;;;;;29.63;19.27;;;;;;;5.28;66.03;101477.19;4928739;28;20164;-78
2023/03/01 02:14:19;;;;;;;32.40;19.83;;;;;;;4.87;66.52;101417.03;4959012;28;20475;-79
2023/03/01 02:16:54;;;;;;;27.52;18.75;;;;;;;5.50;66.04;101500.59;4930021;28;20372;-78
2023/03/01 02:19:40;;;;;;;31.40;18.45;;;;;;;5.47;65.77;101500.78;4961517;28;20076;-79
2023/03/01 02:22:38;;;;;;;28.67;18.50;;;;;;;5.30;66.25;101484.06;4953729;28;20046;-78
2023/03/01 02:25:19;;;;;;;37.35;20.08;;;;;;;5.38;65.50;101482.81;4933284;28;20041;-78
2023/03/01 02:28:18;;;;;;;34.00;19.02;;;;;;;5.34;65.90;101506.69;4915482;28;20475;-78
2023/03/01 02:33:48;;;;;;;32.78;18.35;;;;;;;5.28;66.26;101485.94;4968974;28;20406;-77
2023/03/01 02:36:29;;;;;;;30.52;18.90;;;;;;;5.28;65.92;101477.19;4930759;28;20111;-80
2023/03/01 02:39:14;;;;;;;27.00;19.10;;;;;;;4.82;66.36;101406.75;4928236;28;20465;-78
2023/03/01 02:41:53;;;;;;;34.58;17.90;;;;;;;4.67;66.39;101368.94;4921819;28;20128;-79
2023/03/01 02:44:26;;;;;;;30.45;18.85;;;;;;;5.22;66.49;101462.59;4939356;28;20074;-79
2023/03/01 02:46:56;;;;;;;26.58;18.45;;;;;;;5.39;65.68;101471.34;4905762;28;20320;-79
2023/03/01 02:49:28;;;;;;;32.55;19.17;;;;;;;5.18;66.00;101454.91;4950956;28;20093;-79
2023/03/01 02:52:30;;;;;;;29.35;18.75;;;;;;;5.30;66.02;101470.06;4954650;28;20662;-78
2023/03/01 02:55:05;;;;;;;29.77;18.95;;;;;;;5.20;66.12;101451.28;4924173;28;20065;-80
2023/03/01 02:57:36;;;;;;;33.03;19.52;;;;;;;5.27;66.25;101463.19;4950748;28;20048;-79
2023/03/01 03:00:19;;;;;;;27.80;17.67;;;;;;;5.15;66.26;101421.72;4947151;28;20447;-80
2023/03/01 03:02:59;;;;;;;31.10;18.63;;;;;;;4.93;65.93;101391.25;4951424;28;20426;-79
2023/03/01 03:05:41;;;;;;;32.63;19.83;;;;;;;5.30;66.01;101447.22;4945524;28;20515;-79
2023/03/01 03:08:21;;;;;;;30.27;19.65;;;;;;;5.08;66.03;101401.91;4917769;28;20068;-78
2023/03/01 03:10:56;;;;;;;26.27;18.83;;;;;;;5.24;66.49;101426.50;4927619;28;20053;-77
2023/03/01 03:13:47;;;;;;;29.92;19.70;;;;;;;5.27;66.69;101426.31;4908074;28;20042;-80
2023/03/01 03:16:20;;;;;;;27.88;19.40;;;;;;;5.08;67.53;101409.81;4897574;28;20454;-79
2023/03/01 03:19:04;;;;;;;33.67;18.65;;;;;;;5.20;67.82;101417.06;4929409;28;20469;-79
2023/03/01 03:21:39;;;;;;;31.52;18.45;;;;;;;5.20;67.96;101416.22;4911262;28;20575;-78
2023/03/01 03:24:06;;;;;;;30.88;19.48;;;;;;;5.16;68.16;101418.13;4964034;28;20041;-79
2023/03/01 03:26:36;;;;;;;29.63;19.27;;;;;;;5.20;67.88;101424.09;4934928;28;20107;-77
2023/03/01 03:29:03;;;;;;;27.77;19.20;;;;;;;4.75;68.64;101367.69;4958486;28;20057;-78
2023/03/01 03:31:30;;;;;;;34.67;19.48;;;;;;;5.05;68.67;101410.81;4970088;28;20632;-79
2023/03/01 03:34:02;;;;;;;32.53;20.80;;;;;;;5.08;68.59;101421.19;4942422;28;20049;-78
2023/03/01 03:36:35;;;;;;;32.88;18.98;;;;;;;4.78;68.49;101376.28;4980431;28;20074;-79
2023/03/01 03:39:05;;;;;;;29.95;20.73;;;;;;;4.44;68.60;101317.56;4946954;28;20419;-77
2023/03/01 03:41:34;;;;;;;35.20;20.73;;;;;;;4.81;69.19;101376.13;4953659;28;20045;-79
2023/03/01 03:44:06;;;;;;;27.63;16.88;;;;;;;4.50;68.91;101332.16;4928931;28;20046;-80
2023/03/01 03:46:33;;;;;;;29.35;19.05;;;;;;;4.99;69.29;101418.19;4922213;28;20049;-77
2023/03/01 03:49:14;;;;;;;28.00;19.15;;;;;;;4.53;69.30;101353.03;4953512;28;20423;-78
2023/03/01 03:51:46;;;;;;;30.23;18.38;;;;;;;4.83;69.35;101400.56;4944887;28;20370;-78
2023/03/01 03:54:13;;;;;;;30.63;20.30;;;;;;;4.91;69.19;101414.16;4951358;28;20933;-77
2023/03/01 03:56:40;;;;;;;31.38;19.33;;;;;;;4.85;68.95;101403.94;4970780;28;20056;-77
2023/03/01 03:59:11;;;;;;;31.90;19.95;;;;;;;4.74;69.99;101395.78;4970537;28;20057;-77
2023/03/01 04:01:38;;;;;;;28.15;19.20;;;;;;;4.62;69.87;101386.75;4973472;28;20150;-76
2023/03/01 04:04:07;;;;;;;30.73;19.73;;;;;;;4.80;70.02;101405.97;4954263;28;20065;-79
2023/03/01 04:06:34;;;;;;;28.98;18.98;;;;;;;4.68;69.26;101388.19;4976014;28;20374;-77
2023/03/01 04:09:19;;;;;;;26.97;18.47;;;;;;;4.76;69.15;101399.19;4978221;28;20422;-77
2023/03/01 04:11:46;;;;;;;29.45;18.60;;;;;;;4.79;69.28;101421.84;4942708;28;20475;-78
2023/03/01 04:14:12;;;;;;;28.15;18.08;;;;;;;4.76;69.77;101417.59;4975152;28;20059;-79
2023/03/01 04:16:48;;;;;;;28.42;18.77;;;;;;;4.69;70.07;101414.44;4970120;28;20053;-77
2023/03/01 04:19:17;;;;;;;29.38;18.50;;;;;;;4.74;70.19;101406.31;4991801;28;20084;-79
2023/03/01 04:21:47;;;;;;;29.97;19.60;;;;;;;4.81;69.80;101398.97;4987614;28;20041;-77
2023/03/01 04:24:13;;;;;;;29.90;18.90;;;;;;;4.24;70.91;101313.31;4981820;28;20504;-77
2023/03/01 04:26:45;;;;;;;32.77;19.57;;;;;;;4.80;71.02;101403.34;4976977;28;20067;-78
2023/03/01 04:29:17;;;;;;;29.27;19.75;;;;;;;4.74;70.24;101389.69;4993348;28;20044;-79
2023/03/01 04:31:44;;;;;;;32.83;20.50;;;;;;;4.56;70.81;101370.44;4996534;28;20338;-76
2023/03/01 04:34:13;;;;;;;32.20;20.50;;;;;;;4.34;70.52;101345.22;5002508;28;20064;-78
2023/03/01 04:36:51;;;;;;;34.15;20.10;;;;;;;4.54;71.02;101393.31;4981493;28;20104;-78
2023/03/01 04:39:22;;;;;;;28.90;17.80;;;;;;;4.64;70.85;101408.56;4960957;28;20058;-78
2023/03/01 04:41:49;;;;;;;32.63;19.33;;;;;;;4.59;71.34;101407.94;4971939;28;20296;-76
2023/03/01 04:44:19;;;;;;;34.53;20.85;;;;;;;4.55;71.62;101401.13;4955847;28;20455;-77
2023/03/01 04:46:49;;;;;;;32.70;19.37;;;;;;;4.62;71.76;101412.19;4962864;28;20049;-78
2023/03/01 04:49:20;;;;;;;30.55;19.92;;;;;;;4.52;71.35;101398.66;4964958;28;20103;-78
2023/03/01 04:51:47;;;;;;;30.70;19.10;;;;;;;4.05;71.90;101338.81;4964568;28;20656;-78
2023/03/01 04:54:20;;;;;;;32.63;19.33;;;;;;;4.56;72.27;101407.25;4943997;28;20500;-77
2023/03/01 04:56:52;;;;;;;33.93;19.63;;;;;;;4.44;72.95;101375.41;4948441;28;20091;-78
2023/03/01 04:59:22;;;;;;;30.43;21.07;;;;;;;4.63;72.21;101396.31;4979674;28;20084;-77
2023/03/01 05:01:55;;;;;;;38.83;20.08;;;;;;;4.66;72.34;101390.06;4969267;28;20045;-77
2023/03/01 05:04:23;;;;;;;28.40;19.57;;;;;;;4.58;72.59;101386.97;4978575;28;20057;-77
2023/03/01 05:06:58;;;;;;;32.53;19.23;;;;;;;4.56;73.31;101396.72;4984741;28;20060;-78
2023/03/01 05:09:25;;;;;;;35.20;19.63;;;;;;;4.59;73.64;101401.84;4980533;28;20076;-77
2023/03/01 05:11:52;;;;;;;29.95;20.30;;;;;;;4.22;72.84;101336.22;4991948;28;20336;-77
2023/03/01 05:14:22;;;;;;;32.50;19.17;;;;;;;3.99;73.13;101299.72;4981618;28;20053;-76
2023/03/01 05:16:53;;;;;;;30.40;20.93;;;;;;;4.53;73.09;101386.38;4985006;28;20336;-77
2023/03/01 05:19:22;;;;;;;30.47;19.37;;;;;;;4.37;73.46;101360.88;4964730;28;20159;-79
2023/03/01 05:22:07;;;;;;;31.90;19.07;;;;;;;4.53;73.20;101383.75;4960007;28;20057;-76
2023/03/01 05:24:35;;;;;;;30.90;20.00;;;;;;;4.52;73.53;101389.94;4998032;28;20589;-78
2023/03/01 05:27:08;;;;;;;32.80;20.88;;;;;;;4.32;74.14;101372.53;4978546;28;20057;-78
2023/03/01 05:29:34;;;;;;;31.60;18.20;;;;;;;4.53;74.20;101386.38;4977483;28;20053;-79
2023/03/01 05:32:02;;;;;;;30.70;19.20;;;;;;;4.07;73.86;101310.69;4972307;28;20393;-78
2023/03/01 05:34:32;;;;;;;31.07;18.50;;;;;;;4.50;73.37;101369.81;4982626;28;20589;-79
2023/03/01 05:37:01;;;;;;;;;;;;;;;4.43;74.51;101373.69;4997094;28;20329;-80
2023/03/01 05:39:29;;;;;;;31.20;19.57;;;;;;;4.14;74.01;101334.88;4972817;28;20394;-79
2023/03/01 05:41:58;;;;;;;30.50;19.87;;;;;;;4.32;75.13;101377.78;4985274;28;20499;-77
2023/03/01 05:44:25;;;;;;;29.67;20.37;;;;;;;4.21;74.71;101375.69;4997156;28;20476;-79
2023/03/01 05:46:57;;;;;;;28.87;17.93;;;;;;;4.23;74.84;101394.88;4989730;28;20053;-79
2023/03/01 05:49:34;;;;;;;32.73;19.43;;;;;;;3.85;74.78;101350.31;5022625;28;20128;-78
2023/03/01 05:52:08;;;;;;;35.07;19.83;;;;;;;4.18;74.80;101386.38;5007451;28;20038;-79
2023/03/01 05:54:35;;;;;;;31.33;19.30;;;;;;;3.73;74.81;101301.00;4973034;28;20161;-79
2023/03/01 05:57:10;;;;;;;30.25;19.63;;;;;;;4.19;74.78;101369.66;4969377;28;20652;-78
2023/03/01 05:59:39;;;;;;;30.57;19.80;;;;;;;4.21;75.34;101370.44;4987989;28;20495;-79
2023/03/01 06:02:10;;;;;;;34.70;20.63;;;;;;;4.03;75.17;101352.03;5000485;28;20045;-79
2023/03/01 06:04:37;;;;;;;33.83;20.87;;;;;;;4.07;74.80;101368.50;4967835;28;20068;-79
2023/03/01 06:07:07;;;;;;;33.67;20.53;;;;;;;4.13;75.39;101388.38;4971293;28;20140;-78
2023/03/01 06:09:34;;;;;;;32.43;19.63;;;;;;;4.09;75.02;101384.19;4984046;28;20045;-78
2023/03/01 06:12:01;;;;;;;31.07;19.83;;;;;;;3.97;74.67;101367.25;5006145;28;20052;-76
2023/03/01 06:14:30;;;;;;;36.37;20.50;;;;;;;4.18;75.09;101381.97;4994693;28;20052;-78
2023/03/01 06:17:02;;;;;;;33.03;19.47;;;;;;;4.10;74.99;101378.84;5002183;28;20520;-77
2023/03/01 06:19:36;;;;;;;30.07;19.77;;;;;;;3.92;74.72;101346.47;4999408;28;20072;-78
2023/03/01 06:22:10;;;;;;;28.43;18.90;;;;;;;4.29;75.25;101391.94;4985710;28;20262;-78
2023/03/01 06:24:37;;;;;;;30.03;19.67;;;;;;;4.27;75.03;101381.50;4991551;28;20056;-77
2023/03/01 06:27:04;;;;;;;30.57;19.90;;;;;;;4.46;73.90;101394.56;4981409;28;20164;-78
2023/03/01 06:29:38;;;;;;;26.50;18.57;;;;;;;4.64;73.72;101399.84;4975265;28;20084;-78
2023/03/01 06:32:07;;;;;;;30.53;17.93;;;;;;;4.56;74.12;101387.03;4964988;28;20579;-78
2023/03/01 06:34:34;;;;;;;27.20;18.50;;;;;;;4.48;74.56;101395.34;4985944;28;20041;-77
2023/03/01 06:37:07;;;;;;;42.50;19.87;;;;;;;4.37;74.16;101381.91;5000482;28;20458;-78
2023/03/01 06:39:37;;;;;;;31.03;20.80;;;;;;;4.28;74.80;101392.88;4980865;28;20045;-76
2023/03/01 06:42:04;;;;;;;30.37;19.87;;;;;;;3.71;75.11;101303.69;4953291;28;20052;-77
2023/03/01 06:44:34;;;;;;;35.00;22.57;;;;;;;3.79;75.44;101329.63;4973899;28;20470;-77
2023/03/01 06:47:03;;;;;;;30.33;20.57;;;;;;;3.75;75.70;101320.16;4966651;28;20107;-78
2023/03/01 06:49:43;;;;;;;32.72;21.10;;;;;;;4.34;75.92;101392.53;4970908;28;20263;-76
2023/03/01 06:52:22;;;;;;;32.67;19.57;;;;;;;4.34;75.67;101382.03;4983215;28;20542;-76
2023/03/01 06:54:48;;;;;;;36.30;20.70;;;;;;;4.31;75.15;101387.44;4948778;28;20050;-79
2023/03/01 06:57:20;;;;;;;32.30;21.37;;;;;;;4.32;75.71;101391.78;4944982;28;20131;-77
2023/03/01 07:00:01;;;;;;;30.50;20.03;;;;;;;4.24;75.66;101372.91;4961887;28;20045;-78
2023/03/01 07:02:30;;;;;;;35.67;21.33;;;;;;;4.19;75.34;101377.56;4976049;28;20085;-78
2023/03/01 07:04:57;;;;;;;34.40;21.63;;;;;;;4.14;75.73;101374.31;5005162;28;20621;-79
2023/03/01 07:07:24;;;;;;;36.30;21.07;;;;;;;3.98;76.77;101354.06;5001345;28;20057;-78
2023/03/01 07:09:51;;;;;;;31.87;20.17;;;;;;;3.91;76.55;101322.88;4981570;28;20822;-78
2023/03/01 07:12:23;;;;;;;32.77;21.13;;;;;;;4.09;75.91;101355.28;4994641;28;20045;-78
2023/03/01 07:15:10;;;;;;;31.10;20.37;;;;;;;4.24;75.90;101383.44;4999691;28;20119;-78
2023/03/01 07:17:51;;;;;;;31.00;19.07;;;;;;;4.13;75.69;101375.25;4994400;28;20443;-78
2023/03/01 07:20:35;;;;;;;29.83;20.10;;;;;;;4.11;76.08;101379.72;4950550;28;20053;-78
2023/03/01 07:23:01;;;;;;;30.30;19.93;;;;;;;4.11;76.23;101385.81;4953979;28;20049;-78
2023/03/01 07:25:28;;;;;;;29.43;19.73;;;;;;;4.05;76.00;101391.38;4992652;28;20060;-78
2023/03/01 07:27:55;;;;;;;31.27;20.37;;;;;;;4.05;77.09;101392.25;4989254;28;20056;-77
2023/03/01 07:30:28;;;;;;;31.93;20.57;;;;;;;4.11;76.95;101391.06;4985529;28;20277;-77
2023/03/01 07:32:57;;;;;;;34.00;20.77;;;;;;;4.12;77.07;101391.91;5000556;28;20736;-78
2023/03/01 07:35:27;;;;;;;35.23;20.77;;;;;;;4.13;76.90;101383.13;4996110;28;20291;-77
2023/03/01 07:37:54;;;;;;;31.40;21.73;;;;;;;4.06;76.69;101377.31;4999738;28;20128;-77
2023/03/01 07:40:22;;;;;;;34.40;20.57;;;;;;;3.97;77.53;101362.00;4998913;28;20132;-78
2023/03/01 07:42:57;;;;;;;35.93;21.30;;;;;;;3.42;77.13;101255.25;5001849;28;20045;-77
2023/03/01 07:45:29;;;;;;;32.13;21.83;;;;;;;4.00;77.38;101356.59;4998201;28;20048;-77
2023/03/01 07:47:56;;;;;;;34.87;22.33;;;;;;;3.91;77.81;101350.03;5007389;28;20053;-77
2023/03/01 07:50:28;;;;;;;33.97;22.20;;;;;;;3.82;78.50;101339.97;4967923;28;20243;-78
2023/03/01 07:52:55;;;;;;;;;;;;;;;4.20;78.27;101379.25;4973975;28;20064;-77
2023/03/01 07:55:22;;;;;;;41.23;22.20;;;;;;;4.07;77.85;101374.59;4968200;28;20180;-76
2023/03/01 07:57:55;;;;;;;40.27;24.40;;;;;;;3.95;78.34;101363.84;4968492;28;20133;-78
2023/03/01 08:00:28;;;;;;;42.17;24.93;;;;;;;4.05;78.30;101378.22;5000336;28;20148;-78
2023/03/01 08:02:59;;;;;;;38.13;25.17;;;;;;;3.98;79.01;101369.81;4997861;28;20411;-78
2023/03/01 08:05:44;;;;;;;44.67;26.77;;;;;;;4.09;79.26;101398.19;4985973;28;20561;-78
2023/03/01 08:08:10;;;;;;;46.30;27.43;;;;;;;4.06;78.68;101388.66;4984811;28;20123;-77
2023/03/01 08:10:39;;;;;;;42.67;27.27;;;;;;;3.99;79.06;101379.38;4960551;28;20049;-79
2023/03/01 08:13:06;;;;;;;48.33;27.50;;;;;;;3.92;79.09;101383.25;4954507;28;20041;-79
2023/03/01 08:15:41;;;;;;;40.63;26.50;;;;;;;3.88;79.68;101379.03;4952254;28;20414;-77
2023/03/01 08:18:24;;;;;;;48.00;29.17;;;;;;;3.90;79.39;101387.72;4954159;28;20096;-78
2023/03/01 08:21:06;;;;;;;43.03;26.80;;;;;;;3.98;79.79;101382.94;4944846;28;20338;-79
2023/03/01 08:23:40;;;;;;;48.47;27.93;;;;;;;3.89;79.58;101370.25;4954941;28;20274;-78
2023/03/01 08:26:18;;;;;;;45.43;27.07;;;;;;;3.88;80.31;101383.47;4976095;28;20073;-79
2023/03/01 08:28:47;;;;;;;49.40;28.50;;;;;;;3.84;79.83;101372.25;4951063;28;20046;-77
2023/03/01 08:31:27;;;;;;;43.43;27.80;;;;;;;3.96;79.93;101395.31;4951799;28;20045;-77
2023/03/01 08:34:07;;;;;;;45.93;27.60;;;;;;;3.94;79.57;101389.28;4933440;28;20072;-78
2023/03/01 08:36:44;;;;;;;44.70;28.17;;;;;;;3.51;79.90;101330.09;4973076;28;20499;-79
2023/03/01 08:39:16;;;;;;;41.10;26.83;;;;;;;4.02;79.87;101383.63;4994310;28;20107;-79
2023/03/01 08:41:51;;;;;;;49.77;27.87;;;;;;;4.02;79.46;101381.00;4997001;28;20133;-79
2023/03/01 08:44:23;;;;;;;43.10;27.90;;;;;;;4.03;80.04;101382.72;4979946;28;20376;-79
2023/03/01 08:47:02;;;;;;;52.80;27.53;;;;;;;4.07;80.35;101379.84;4940104;28;20565;-77
2023/03/01 08:49:39;;;;;;;45.03;26.97;;;;;;;4.15;79.97;101373.38;4939519;28;20049;-77
2023/03/01 08:52:06;;;;;;;49.83;27.77;;;;;;;4.18;79.94;101362.72;4964966;28;20262;-79
2023/03/01 08:54:32;;;;;;;47.10;27.77;;;;;;;4.07;79.96;101348.31;4973864;28;20760;-78
2023/03/01 08:57:04;;;;;;;46.13;25.57;;;;;;;4.19;80.11;101367.03;4966441;28;20496;-79
2023/03/01 08:59:35;;;;;;;42.53;26.70;;;;;;;4.12;80.22;101355.13;4972129;28;20049;-77
2023/03/01 09:02:12;;;;;;;47.33;26.97;;;;;;;4.09;80.14;101345.63;4990962;28;20605;-79
2023/03/01 09:04:41;;;;;;;42.20;26.87;;;;;;;2.60;79.84;101087.81;4988872;28;20061;-78
2023/03/01 09:07:15;;;;;;;43.20;24.90;;;;;;;4.19;79.37;101356.53;4936377;28;20372;-79
2023/03/01 09:09:53;;;;;;;43.50;27.20;;;;;;;4.06;79.38;101344.00;4950933;28;20453;-79
2023/03/01 09:12:35;;;;;;;43.90;26.70;;;;;;;3.79;80.00;101301.56;4983864;28;20051;-77
2023/03/01 09:15:18;;;;;;;37.70;25.60;;;;;;;3.91;79.57;101315.88;4988684;28;20801;-79
2023/03/01 09:17:51;;;;;;;46.65;27.52;;;;;;;3.91;80.17;101326.38;4961968;28;20456;-78
2023/03/01 09:20:30;;;;;;;45.33;26.27;;;;;;;4.15;79.82;101357.59;4960966;28;20542;-78
2023/03/01 09:23:08;;;;;;;42.97;27.33;;;;;;;3.96;80.15;101329.63;4983372;28;20131;-79
2023/03/01 09:25:36;;;;;;;38.03;26.40;;;;;;;3.90;79.96;101311.53;5008503;28;20048;-77
2023/03/01 09:28:03;;;;;;;35.03;22.07;;;;;;;3.82;79.46;101321.56;4988867;28;20076;-78
2023/03/01 09:30:39;;;;;;;45.50;25.57;;;;;;;3.93;79.94;101328.91;4995902;28;20514;-77
2023/03/01 09:33:31;;;;;;;40.50;23.83;;;;;;;3.75;80.25;101284.25;4984629;28;20080;-77
2023/03/01 09:36:06;;;;;;;37.47;23.77;;;;;;;4.04;79.29;101324.81;4984844;28;20293;-80
2023/03/01 09:38:34;;;;;;;35.70;22.17;;;;;;;3.29;78.67;101180.66;4996342;28;20300;-77
2023/03/01 09:41:22;;;;;;;37.30;23.93;;;;;;;4.40;78.40;101339.66;5000844;28;20101;-79
2023/03/01 09:44:05;;;;;;;34.53;21.60;;;;;;;4.22;78.15;101323.06;5010320;28;20085;-79
2023/03/01 09:46:42;;;;;;;33.60;21.93;;;;;;;4.24;78.46;101313.31;4992664;28;20049;-78
2023/03/01 09:49:37;;;;;;;32.30;20.73;;;;;;;3.69;78.61;101197.91;4994582;28;20049;-75
2023/03/01 09:52:29;;;;;;;32.63;20.17;;;;;;;4.41;78.38;101315.06;4998588;28;20061;-80
2023/03/01 09:54:56;;;;;;;34.13;21.13;;;;;;;4.44;78.84;101304.41;4987901;28;20522;-78
2023/03/01 09:57:53;;;;;;;33.87;20.57;;;;;;;4.35;77.55;101289.09;4988588;28;20076;-79
2023/03/01 10:00:53;;;;;;;34.90;20.57;;;;;;;4.00;78.85;101230.47;5000608;28;20207;-76
2023/03/01 10:03:35;;;;;;;35.07;19.03;;;;;;;4.28;78.63;101275.44;4920658;28;20055;-75
2023/03/01 10:06:26;;;;;;;31.57;19.83;;;;;;;4.23;78.29;101274.81;4897990;28;20318;-76
2023/03/01 10:09:16;;;;;;;32.07;18.63;;;;;;;3.84;79.23;101230.41;4999597;28;20491;-79
2023/03/01 10:11:51;;;;;;;31.97;19.60;;;;;;;4.06;79.60;101274.84;4989271;28;20073;-79
2023/03/01 10:14:27;;;;;;;37.37;21.23;;;;;;;4.05;80.12;101271.38;4977722;28;20132;-80
2023/03/01 10:17:21;;;;;;;33.00;19.27;;;;;;;4.00;81.05;101270.72;4953255;28;20054;-77
2023/03/01 10:19:58;;;;;;;36.37;21.03;;;;;;;4.16;81.06;101281.31;4983196;28;20299;-79
2023/03/01 10:22:34;;;;;;;34.93;19.63;;;;;;;4.01;80.25;101237.44;4973964;28;20052;-77
2023/03/01 10:25:06;;;;;;;28.13;18.20;;;;;;;4.20;79.20;101282.00;4998535;28;20115;-78
2023/03/01 10:27:42;;;;;;;29.67;19.37;;;;;;;4.16;79.48;101277.84;5002599;28;20477;-81
2023/03/01 10:30:30;;;;;;;29.10;19.47;;;;;;;4.03;79.96;101286.34;4987796;28;20231;-79
2023/03/01 10:32:58;;;;;;;27.43;18.97;;;;;;;3.29;80.78;101176.25;4979261;28;20049;-79
2023/03/01 10:35:36;;;;;;;30.90;19.43;;;;;;;3.71;80.38;101247.72;4985779;28;20211;-77
2023/03/01 10:38:10;;;;;;;32.63;19.17;;;;;;;4.11;80.57;101293.00;4978463;28;20399;-78
2023/03/01 10:41:05;;;;;;;28.63;17.90;;;;;;;3.77;79.67;101261.38;4973063;28;20400;-81
2023/03/01 10:43:55;;;;;;;31.70;20.48;;;;;;;4.13;80.43;101330.56;4984406;28;20414;-78
2023/03/01 10:46:28;;;;;;;28.87;18.83;;;;;;;4.26;80.24;101334.25;5010199;28;20315;-79
2023/03/01 10:49:22;;;;;;;33.00;19.00;;;;;;;4.30;79.38;101330.56;5000406;28;20135;-79
2023/03/01 10:51:55;;;;;;;31.53;17.17;;;;;;;3.95;79.85;101279.78;5001949;28;20061;-79
2023/03/01 10:54:31;;;;;;;31.10;18.95;;;;;;;3.84;78.94;101264.56;4975110;28;20100;-79
2023/03/01 10:57:04;;;;;;;35.33;20.57;;;;;;;4.20;80.08;101321.41;4971242;28;20064;-78
2023/03/01 10:59:37;;;;;;;30.43;19.47;;;;;;;4.10;80.33;101309.69;4975363;28;20483;-78
2023/03/01 11:02:27;;;;;;;28.27;18.93;;;;;;;4.22;79.97;101319.56;4997747;28;20193;-77
2023/03/01 11:05:24;;;;;;;32.93;18.30;;;;;;;4.20;79.03;101342.44;4981390;28;20096;-80
2023/03/01 11:07:56;;;;;;;35.73;19.40;;;;;;;4.22;80.00;101348.47;4966097;28;20106;-79
2023/03/01 11:10:34;;;;;;;31.83;19.70;;;;;;;3.57;80.12;101258.91;5022686;28;20088;-80
2023/03/01 11:13:20;;;;;;;37.70;21.13;;;;;;;3.96;81.49;101345.38;5003090;28;20084;-77
2023/03/01 11:16:11;;;;;;;33.03;18.60;;;;;;;4.03;80.28;101344.16;5008186;28;20144;-77
2023/03/01 11:19:18;;;;;;;35.23;19.00;;;;;;;3.75;79.77;101309.66;5005695;28;20513;-77
2023/03/01 11:21:57;;;;;;;30.50;18.37;;;;;;;3.70;80.37;101264.41;4980844;28;20116;-78
2023/03/01 11:24:34;;;;;;;31.40;19.10;;;;;;;3.95;79.25;101317.41;4964448;28;20057;-79
2023/03/01 11:27:26;;;;;;;28.60;17.27;;;;;;;4.01;80.23;101326.78;4987719;28;20049;-80
2023/03/01 11:29:59;;;;;;;35.17;19.90;;;;;;;3.97;79.96;101326.06;4988300;28;20071;-79
2023/03/01 11:32:31;;;;;;;29.97;19.27;;;;;;;3.60;80.31;101259.59;4975114;28;20045;-78
2023/03/01 11:35:05;;;;;;;30.70;19.17;;;;;;;3.85;79.71;101310.91;4970399;28;20117;-80
2023/03/01 11:37:53;;;;;;;34.90;19.07;;;;;;;3.74;80.85;101306.19;4969888;28;20045;-79
2023/03/01 11:40:35;;;;;;;30.80;19.30;;;;;;;3.09;81.02;101200.84;5003203;28;20056;-78
2023/03/01 11:43:20;;;;;;;29.60;17.13;;;;;;;3.65;81.38;101283.00;4945928;28;20053;-80
2023/03/01 11:45:50;;;;;;;28.27;18.40;;;;;;;3.74;80.06;101295.69;4990915;28;20053;-77
2023/03/01 11:49:04;;;;;;;31.47;18.13;;;;;;;3.70;79.62;101306.41;5006286;28;20407;-78
2023/03/01 11:51:45;;;;;;;29.13;18.30;;;;;;;3.45;80.61;101301.50;4916483;28;20270;-79
2023/03/01 11:54:49;;;;;;;31.08;18.15;;;;;;;3.52;81.13;101302.91;4861904;29;20131;-79